createdAt,value
2019-04-20T00:00:39.934Z,0.00
2019-04-20T00:01:32.227Z,0.00
2019-04-20T00:02:51.123Z,0.00
2019-04-20T00:03:35.500Z,0.00
2019-04-20T00:04:35.761Z,0.00
2019-04-20T00:05:28.245Z,0.00
2019-04-20T00:06:31.707Z,0.00
2019-04-20T00:07:31.297Z,0.00
2019-04-20T00:08:31.450Z,0.00
2019-04-20T00:09:31.777Z,0.00
2019-04-20T00:10:30.329Z,0.00
2019-04-20T00:11:36.432Z,0.00
2019-04-20T00:12:36.885Z,0.00
2019-04-20T00:13:37.891Z,0.00
2019-04-20T00:14:32.325Z,0.00
2019-04-20T00:15:28.239Z,0.00
2019-04-20T00:16:27.749Z,0.00
2019-04-20T00:17:28.786Z,0.00
2019-04-20T00:18:37.856Z,0.00
2019-04-20T00:19:36.552Z,0.00
2019-04-20T00:20:32.012Z,0.00
2019-04-20T00:21:28.927Z,0.00
2019-04-20T00:22:36.367Z,0.00
2019-04-20T00:23:33.493Z,0.00
2019-04-20T00:24:33.502Z,0.00
2019-04-20T00:25:46.234Z,0.00
2019-04-20T00:27:02.029Z,0.00
2019-04-20T00:27:50.224Z,0.00
2019-04-20T00:28:45.662Z,0.00
2019-04-20T00:29:47.977Z,0.00
2019-04-20T00:30:46.821Z,0.00
2019-04-20T00:31:44.269Z,0.00
2019-04-20T00:32:43.779Z,0.00
2019-04-20T00:33:43.085Z,0.00
2019-04-20T00:34:32.011Z,0.00
2019-04-20T00:35:27.320Z,0.00
2019-04-20T00:36:28.735Z,0.00
2019-04-20T00:37:27.746Z,0.00
2019-04-20T00:38:38.972Z,0.00
2019-04-20T00:39:27.855Z,0.00
2019-04-20T00:40:28.454Z,0.00
2019-04-20T00:41:27.691Z,0.00
2019-04-20T00:42:33.967Z,0.00
2019-04-20T00:43:32.314Z,0.00
2019-04-20T00:44:31.639Z,0.00
2019-04-20T00:45:31.653Z,0.00
2019-04-20T00:46:32.956Z,0.00
2019-04-20T00:47:37.363Z,0.00
2019-04-20T00:48:40.413Z,0.00
2019-04-20T00:49:41.910Z,0.00
2019-04-20T00:50:41.766Z,0.00
2019-04-20T00:51:46.625Z,0.00
2019-04-20T00:52:43.742Z,0.00
2019-04-20T00:53:33.365Z,0.00
2019-04-20T00:54:28.309Z,0.00
2019-04-20T00:55:27.304Z,0.00
2019-04-20T00:56:26.859Z,0.00
2019-04-20T00:57:38.085Z,0.00
2019-04-20T00:58:31.553Z,0.00
2019-04-20T00:59:42.899Z,0.00
2019-04-20T01:00:41.056Z,0.00
2019-04-20T01:01:50.252Z,0.00
2019-04-20T01:02:37.100Z,0.00
2019-04-20T01:03:44.856Z,0.00
2019-04-20T01:04:47.565Z,0.00
2019-04-20T01:05:46.423Z,0.00
2019-04-20T01:06:41.225Z,0.00
2019-04-20T01:07:37.448Z,0.00
2019-04-20T01:08:27.474Z,0.00
2019-04-20T01:09:26.575Z,0.00
2019-04-20T01:10:28.870Z,0.00
2019-04-20T01:11:30.848Z,0.00
2019-04-20T01:12:31.276Z,0.00
2019-04-20T01:13:28.094Z,0.00
2019-04-20T01:14:33.792Z,0.00
2019-04-20T01:15:36.380Z,0.00
2019-04-20T01:16:36.856Z,0.00
2019-04-20T01:17:26.366Z,0.00
2019-04-20T01:18:26.338Z,0.00
2019-04-20T01:19:26.317Z,0.00
2019-04-20T01:20:27.863Z,0.00
2019-04-20T01:21:28.842Z,0.00
2019-04-20T01:22:28.369Z,0.00
2019-04-20T01:23:36.580Z,0.00
2019-04-20T01:24:32.873Z,0.00
2019-04-20T01:25:32.278Z,0.00
2019-04-20T01:26:27.667Z,0.00
2019-04-20T01:27:39.600Z,0.00
2019-04-20T01:28:42.586Z,0.00
2019-04-20T01:29:32.435Z,0.00
2019-04-20T01:30:35.276Z,0.00
2019-04-20T01:31:35.512Z,0.00
2019-04-20T01:32:34.260Z,0.00
2019-04-20T01:33:41.597Z,0.00
2019-04-20T01:34:39.195Z,0.00
2019-04-20T01:35:46.123Z,0.00
2019-04-20T01:36:45.844Z,0.00
2019-04-20T01:37:36.019Z,0.00
2019-04-20T01:38:40.834Z,0.00
2019-04-20T01:39:34.801Z,0.00
2019-04-20T01:40:25.842Z,0.00
2019-04-20T01:41:26.509Z,0.00
2019-04-20T01:42:25.797Z,0.00
2019-04-20T01:43:26.950Z,0.00
2019-04-20T01:44:31.747Z,0.00
2019-04-20T01:45:32.416Z,0.00
2019-04-20T01:46:28.328Z,0.00
2019-04-20T01:47:32.323Z,0.00
2019-04-20T01:48:30.550Z,0.00
2019-04-20T01:49:31.530Z,0.00
2019-04-20T01:50:28.482Z,0.00
2019-04-20T01:51:30.766Z,0.00
2019-04-20T01:52:31.166Z,0.00
2019-04-20T01:53:44.178Z,0.00
2019-04-20T01:54:48.385Z,0.00
2019-04-20T01:55:42.570Z,0.00
2019-04-20T01:56:36.162Z,0.00
2019-04-20T01:57:33.037Z,0.00
2019-04-20T01:58:58.208Z,0.00
2019-04-20T01:59:38.634Z,0.00
2019-04-20T02:00:31.593Z,0.00
2019-04-20T02:01:31.106Z,0.00
2019-04-20T02:02:26.682Z,0.00
2019-04-20T02:03:31.129Z,0.00
2019-04-20T02:04:32.276Z,0.00
2019-04-20T02:05:29.593Z,0.00
2019-04-20T02:06:28.234Z,0.00
2019-04-20T02:07:31.594Z,0.00
2019-04-20T02:08:28.147Z,0.00
2019-04-20T02:09:28.038Z,0.00
2019-04-20T02:10:33.311Z,0.00
2019-04-20T02:11:31.369Z,0.00
2019-04-20T02:12:29.056Z,0.00
2019-04-20T02:13:32.625Z,0.00
2019-04-20T02:14:34.198Z,0.00
2019-04-20T02:15:32.647Z,0.00
2019-04-20T02:16:33.649Z,0.00
2019-04-20T02:17:31.905Z,0.00
2019-04-20T02:18:39.025Z,0.00
2019-04-20T02:19:39.264Z,0.00
2019-04-20T02:20:44.832Z,0.00
2019-04-20T02:21:42.230Z,0.00
2019-04-20T02:22:42.177Z,0.00
2019-04-20T02:23:35.130Z,0.00
2019-04-20T02:24:25.775Z,0.00
2019-04-20T02:25:24.998Z,0.00
2019-04-20T02:26:25.770Z,0.00
2019-04-20T02:27:29.977Z,0.00
2019-04-20T02:28:44.352Z,0.00
2019-04-20T02:29:45.933Z,0.00
2019-04-20T02:31:06.545Z,0.00
2019-04-20T02:32:57.062Z,0.00
2019-04-20T02:34:55.550Z,0.00
2019-04-20T02:36:02.804Z,0.00
2019-04-20T02:37:07.762Z,0.00
2019-04-20T02:38:02.885Z,0.00
2019-04-20T02:41:05.676Z,0.00
2019-04-20T02:42:57.446Z,0.00
2019-04-20T02:44:06.510Z,0.00
2019-04-20T02:45:12.755Z,0.00
2019-04-20T02:45:52.835Z,0.00
2019-04-20T02:46:55.671Z,0.00
2019-04-20T02:48:01.540Z,0.00
2019-04-20T02:49:01.448Z,0.00
2019-04-20T02:51:08.976Z,0.00
2019-04-20T02:54:14.153Z,0.00
2019-04-20T02:55:02.138Z,0.00
2019-04-20T02:55:58.486Z,0.00
2019-04-20T02:57:14.478Z,0.00
2019-04-20T02:59:03.882Z,0.00
2019-04-20T03:00:44.474Z,0.00
2019-04-20T03:01:45.116Z,0.00
2019-04-20T03:02:39.613Z,0.00
2019-04-20T03:03:32.829Z,0.00
2019-04-20T03:04:35.049Z,0.00
2019-04-20T03:05:35.894Z,0.00
2019-04-20T03:06:36.144Z,0.00
2019-04-20T03:07:41.495Z,0.00
2019-04-20T03:08:43.043Z,0.00
2019-04-20T03:09:46.908Z,0.00
2019-04-20T03:10:54.974Z,0.00
2019-04-20T03:11:53.983Z,0.00
2019-04-20T03:12:46.988Z,0.00
2019-04-20T03:13:41.426Z,0.00
2019-04-20T03:14:40.168Z,0.00
2019-04-20T03:15:46.587Z,0.00
2019-04-20T03:16:39.744Z,0.00
2019-04-20T03:17:46.478Z,0.00
2019-04-20T03:18:41.339Z,0.00
2019-04-20T03:19:41.101Z,0.00
2019-04-20T03:20:46.625Z,0.00
2019-04-20T03:21:45.357Z,0.00
2019-04-20T03:23:07.332Z,0.00
2019-04-20T03:23:55.224Z,0.00
2019-04-20T03:24:59.336Z,0.00
2019-04-20T03:25:52.576Z,0.00
2019-04-20T03:26:40.307Z,0.00
2019-04-20T03:27:38.872Z,0.00
2019-04-20T03:28:39.018Z,0.00
2019-04-20T03:29:46.906Z,0.00
2019-04-20T03:32:22.423Z,0.00
2019-04-20T03:33:21.158Z,0.00
2019-04-20T03:34:04.501Z,0.00
2019-04-20T03:35:00.628Z,0.00
2019-04-20T03:35:51.089Z,0.00
2019-04-20T03:36:53.238Z,0.00
2019-04-20T03:37:58.687Z,0.00
2019-04-20T03:38:41.655Z,0.00
2019-04-20T03:39:40.779Z,0.00
2019-04-20T03:40:37.561Z,0.00
2019-04-20T03:41:31.105Z,0.00
2019-04-20T03:42:24.357Z,0.00
2019-04-20T03:43:23.012Z,0.00
2019-04-20T03:44:26.494Z,0.00
2019-04-20T03:45:24.890Z,0.00
2019-04-20T03:46:30.953Z,0.00
2019-04-20T03:47:33.746Z,0.00
2019-04-20T03:48:41.292Z,0.00
2019-04-20T03:49:48.225Z,0.00
2019-04-20T03:50:42.467Z,4.00
2019-04-20T03:51:48.966Z,0.00
2019-04-20T03:52:41.784Z,0.00
2019-04-20T03:53:43.509Z,4.00
2019-04-20T03:54:35.750Z,0.00
2019-04-20T03:55:40.798Z,4.00
2019-04-20T03:56:46.335Z,4.00
2019-04-20T03:57:48.196Z,8.00
2019-04-20T03:58:39.077Z,8.00
2019-04-20T03:59:47.571Z,8.00
2019-04-20T04:00:43.428Z,12.00
2019-04-20T04:02:04.092Z,12.00
2019-04-20T04:03:00.373Z,16.00
2019-04-20T04:03:47.189Z,16.00
2019-04-20T04:04:45.345Z,20.00
2019-04-20T04:05:35.482Z,24.00
2019-04-20T04:06:32.853Z,28.00
2019-04-20T04:07:30.450Z,32.00
2019-04-20T04:08:32.214Z,36.00
2019-04-20T04:09:32.689Z,44.00
2019-04-20T04:10:33.588Z,52.00
2019-04-20T04:11:38.086Z,60.00
2019-04-20T04:12:29.969Z,64.00
2019-04-20T04:13:23.033Z,76.00
2019-04-20T04:14:22.293Z,88.00
2019-04-20T04:15:23.124Z,100.00
2019-04-20T04:16:27.065Z,112.00
2019-04-20T04:17:30.983Z,128.00
2019-04-20T04:18:29.850Z,144.00
2019-04-20T04:19:29.534Z,160.00
2019-04-20T04:20:23.086Z,176.00
2019-04-20T04:21:40.924Z,196.00
2019-04-20T04:22:41.998Z,216.00
2019-04-20T04:23:39.305Z,240.00
2019-04-20T04:24:31.512Z,260.00
2019-04-20T04:25:33.530Z,284.00
2019-04-20T04:26:39.096Z,308.00
2019-04-20T04:27:40.658Z,340.00
2019-04-20T04:28:39.752Z,368.00
2019-04-20T04:29:41.879Z,396.00
2019-04-20T04:30:37.931Z,424.00
2019-04-20T04:31:50.683Z,460.00
2019-04-20T04:33:08.620Z,488.00
2019-04-20T04:34:39.104Z,560.00
2019-04-20T04:35:35.059Z,592.00
2019-04-20T04:36:40.485Z,628.00
2019-04-20T04:37:40.807Z,664.00
2019-04-20T04:38:42.320Z,700.00
2019-04-20T04:39:46.721Z,740.00
2019-04-20T04:40:49.537Z,776.00
2019-04-20T04:41:39.957Z,816.00
2019-04-20T04:42:43.927Z,852.00
2019-04-20T04:43:40.011Z,896.00
2019-04-20T04:44:35.451Z,932.00
2019-04-20T04:45:25.496Z,972.00
2019-04-20T04:46:22.794Z,1012.00
2019-04-20T04:47:21.917Z,1052.00
2019-04-20T04:48:28.082Z,1092.00
2019-04-20T04:49:30.685Z,1132.00
2019-04-20T04:50:24.864Z,1176.00
2019-04-20T04:51:26.141Z,1212.00
2019-04-20T04:52:29.319Z,1252.00
2019-04-20T04:53:30.170Z,1292.00
2019-04-20T04:54:30.543Z,1332.00
2019-04-20T04:55:32.725Z,1368.00
2019-04-20T04:56:23.973Z,1408.00
2019-04-20T04:57:22.246Z,1444.00
2019-04-20T04:58:21.610Z,1484.00
2019-04-20T04:59:21.450Z,1524.00
2019-04-20T05:00:26.210Z,1564.00
2019-04-20T05:01:26.024Z,1600.00
2019-04-20T05:02:22.741Z,1636.00
2019-04-20T05:03:41.421Z,1676.00
2019-04-20T05:04:44.526Z,1712.00
2019-04-20T05:05:42.512Z,1752.00
2019-04-20T05:06:34.405Z,1788.00
2019-04-20T05:07:36.754Z,1820.00
2019-04-20T05:08:27.297Z,1860.00
2019-04-20T05:09:22.662Z,1896.00
2019-04-20T05:10:20.985Z,1932.00
2019-04-20T05:11:21.753Z,1968.00
2019-04-20T05:12:24.863Z,2004.00
2019-04-20T05:13:21.948Z,2040.00
2019-04-20T05:14:27.072Z,2072.00
2019-04-20T05:15:34.803Z,2108.00
2019-04-20T05:16:43.560Z,2136.00
2019-04-20T05:17:46.207Z,2172.00
2019-04-20T05:18:44.965Z,2204.00
2019-04-20T05:19:41.250Z,2232.00
2019-04-20T05:20:41.549Z,2268.00
2019-04-20T05:21:39.419Z,2300.00
2019-04-20T05:22:43.957Z,2332.00
2019-04-20T05:23:35.448Z,2368.00
2019-04-20T05:24:34.889Z,2400.00
2019-04-20T05:25:37.785Z,2428.00
2019-04-20T05:26:42.743Z,2460.00
2019-04-20T05:27:43.987Z,2492.00
2019-04-20T05:28:33.376Z,2524.00
2019-04-20T05:29:25.495Z,2556.00
2019-04-20T05:30:20.534Z,2588.00
2019-04-20T05:31:24.478Z,2616.00
2019-04-20T05:32:32.594Z,2648.00
2019-04-20T05:33:30.432Z,2676.00
2019-04-20T05:34:48.004Z,2700.00
2019-04-20T05:35:40.749Z,2732.00
2019-04-20T05:36:41.275Z,2764.00
2019-04-20T05:37:54.632Z,2792.00
2019-04-20T05:38:50.407Z,2824.00
2019-04-20T05:39:42.771Z,2852.00
2019-04-20T05:40:39.014Z,2876.00
2019-04-20T05:41:40.334Z,2908.00
2019-04-20T05:42:42.999Z,2936.00
2019-04-20T05:43:38.600Z,2972.00
2019-04-20T05:44:44.314Z,3004.00
2019-04-20T05:45:34.015Z,3148.00
2019-04-20T05:46:36.224Z,4288.00
2019-04-20T05:47:41.155Z,6412.00
2019-04-20T05:48:40.981Z,9308.00
2019-04-20T05:49:34.993Z,11292.00
2019-04-20T05:50:36.331Z,11388.00
2019-04-20T05:51:44.386Z,12308.00
2019-04-20T05:53:41.229Z,14200.00
2019-04-20T05:54:39.069Z,13920.00
2019-04-20T05:55:40.219Z,14200.00
2019-04-20T05:56:45.669Z,13844.00
2019-04-20T05:57:42.697Z,13356.00
2019-04-20T05:58:40.182Z,11116.00
2019-04-20T05:59:45.022Z,6472.00
2019-04-20T06:00:48.395Z,8960.00
2019-04-20T06:01:45.638Z,15040.00
2019-04-20T06:02:37.743Z,15488.00
2019-04-20T06:03:38.221Z,14520.00
2019-04-20T06:04:55.866Z,13944.00
2019-04-20T06:05:45.866Z,13192.00
2019-04-20T06:06:39.169Z,9968.00
2019-04-20T06:07:42.006Z,8028.00
2019-04-20T06:08:51.209Z,10424.00
2019-04-20T06:09:42.941Z,13088.00
2019-04-20T06:10:40.575Z,13396.00
2019-04-20T06:11:47.874Z,10704.00
2019-04-20T06:12:40.199Z,6136.00
2019-04-20T06:13:32.421Z,4300.00
2019-04-20T06:14:37.085Z,4200.00
2019-04-20T06:15:42.181Z,4192.00
2019-04-20T06:16:45.430Z,4132.00
2019-04-20T06:17:41.885Z,4076.00
2019-04-20T06:18:35.429Z,4076.00
2019-04-20T06:19:41.121Z,4944.00
2019-04-20T06:20:46.964Z,5680.00
2019-04-20T06:21:42.626Z,4088.00
2019-04-20T06:22:41.733Z,3972.00
2019-04-20T06:23:47.897Z,4052.00
2019-04-20T06:24:46.901Z,4456.00
2019-04-20T06:25:46.091Z,8076.00
2019-04-20T06:26:51.913Z,7352.00
2019-04-20T06:27:40.884Z,6232.00
2019-04-20T06:28:37.946Z,5408.00
2019-04-20T06:29:41.319Z,5140.00
2019-04-20T06:30:36.440Z,9124.00
2019-04-20T06:31:40.692Z,24928.00
2019-04-20T06:32:40.280Z,31680.00
2019-04-20T06:33:55.225Z,20960.00
2019-04-20T06:34:36.677Z,7980.00
2019-04-20T06:36:01.311Z,5444.00
2019-04-20T06:37:48.620Z,4676.00
2019-04-20T06:39:52.193Z,4152.00
2019-04-20T06:40:55.223Z,4096.00
2019-04-20T06:42:02.384Z,4104.00
2019-04-20T06:42:41.080Z,4124.00
2019-04-20T06:43:40.970Z,4172.00
2019-04-20T06:44:50.510Z,4284.00
2019-04-20T06:45:46.011Z,4420.00
2019-04-20T06:46:45.621Z,4368.00
2019-04-20T06:47:44.142Z,4240.00
2019-04-20T06:48:50.007Z,4212.00
2019-04-20T06:49:53.597Z,4224.00
2019-04-20T06:50:38.498Z,4288.00
2019-04-20T06:51:34.852Z,4444.00
2019-04-20T06:52:38.541Z,4448.00
2019-04-20T06:53:45.246Z,4588.00
2019-04-20T06:54:40.663Z,5056.00
2019-04-20T06:55:42.956Z,5220.00
2019-04-20T06:56:41.775Z,5140.00
2019-04-20T06:57:40.325Z,5212.00
2019-04-20T06:58:43.714Z,5328.00
2019-04-20T06:59:43.016Z,5420.00
2019-04-20T07:00:44.428Z,5492.00
2019-04-20T07:01:48.708Z,5512.00
2019-04-20T07:02:41.760Z,5524.00
2019-04-20T07:03:57.898Z,5592.00
2019-04-20T07:04:52.113Z,5660.00
2019-04-20T07:05:39.207Z,5748.00
2019-04-20T07:07:07.526Z,5720.00
2019-04-20T07:07:43.250Z,5796.00
2019-04-20T07:08:48.919Z,5940.00
2019-04-20T07:09:46.449Z,5960.00
2019-04-20T07:10:43.868Z,5928.00
2019-04-20T07:11:39.050Z,5640.00
2019-04-20T07:12:39.833Z,5532.00
2019-04-20T07:13:30.869Z,5532.00
2019-04-20T07:14:32.897Z,5580.00
2019-04-20T07:15:34.161Z,5768.00
2019-04-20T07:16:42.241Z,5968.00
2019-04-20T07:17:49.000Z,6004.00
2019-04-20T07:18:46.700Z,5840.00
2019-04-20T07:19:39.086Z,5832.00
2019-04-20T07:20:46.117Z,6056.00
2019-04-20T07:21:53.606Z,6240.00
2019-04-20T07:22:37.486Z,6076.00
2019-04-20T07:23:42.181Z,5748.00
2019-04-20T07:24:48.889Z,5560.00
2019-04-20T07:25:43.374Z,5516.00
2019-04-20T07:26:44.598Z,5512.00
2019-04-20T07:27:41.666Z,5496.00
2019-04-20T07:28:47.465Z,5508.00
2019-04-20T07:29:40.902Z,5492.00
2019-04-20T07:30:41.830Z,5492.00
2019-04-20T07:31:36.902Z,5488.00
2019-04-20T07:32:51.152Z,5508.00
2019-04-20T07:33:41.586Z,5568.00
2019-04-20T07:34:38.736Z,5672.00
2019-04-20T07:35:35.636Z,5880.00
2019-04-20T07:36:40.270Z,5976.00
2019-04-20T07:38:39.934Z,6024.00
2019-04-20T07:39:40.664Z,6024.00
2019-04-20T07:40:40.135Z,5944.00
2019-04-20T07:41:49.148Z,5948.00
2019-04-20T07:42:43.687Z,6096.00
2019-04-20T07:43:43.565Z,6280.00
2019-04-20T07:44:47.220Z,6380.00
2019-04-20T07:45:33.013Z,6284.00
2019-04-20T07:46:49.535Z,6180.00
2019-04-20T07:47:34.729Z,6260.00
2019-04-20T07:48:36.557Z,6264.00
2019-04-20T07:49:38.790Z,6116.00
2019-04-20T07:50:31.832Z,6180.00
2019-04-20T07:51:26.023Z,6360.00
2019-04-20T07:52:31.567Z,6356.00
2019-04-20T07:53:35.275Z,6180.00
2019-04-20T07:54:47.641Z,6132.00
2019-04-20T07:55:49.554Z,6144.00
2019-04-20T07:56:42.340Z,6180.00
2019-04-20T07:57:35.304Z,6220.00
2019-04-20T07:58:28.542Z,6272.00
2019-04-20T07:59:31.485Z,6332.00
2019-04-20T08:00:51.941Z,6408.00
2019-04-20T08:01:44.904Z,6476.00
2019-04-20T08:02:43.588Z,6568.00
2019-04-20T08:03:39.384Z,6560.00
2019-04-20T08:04:39.332Z,6576.00
2019-04-20T08:05:31.246Z,6644.00
2019-04-20T08:06:25.071Z,6720.00
2019-04-20T08:07:24.789Z,6812.00
2019-04-20T08:08:32.674Z,6828.00
2019-04-20T08:09:30.494Z,6776.00
2019-04-20T08:10:34.111Z,6792.00
2019-04-20T08:11:41.145Z,6868.00
2019-04-20T08:12:43.854Z,7000.00
2019-04-20T08:14:42.520Z,7268.00
2019-04-20T08:16:57.311Z,7480.00
2019-04-20T08:17:53.988Z,7552.00
2019-04-20T08:18:39.986Z,7636.00
2019-04-20T08:19:35.382Z,7720.00
2019-04-20T08:20:43.667Z,7788.00
2019-04-20T08:21:52.527Z,7852.00
2019-04-20T08:22:46.425Z,7932.00
2019-04-20T08:23:38.913Z,8024.00
2019-04-20T08:24:34.503Z,8140.00
2019-04-20T08:25:31.560Z,8236.00
2019-04-20T08:26:23.505Z,8388.00
2019-04-20T08:27:18.424Z,8536.00
2019-04-20T08:28:24.990Z,8712.00
2019-04-20T08:29:33.176Z,8904.00
2019-04-20T08:30:33.874Z,9104.00
2019-04-20T08:31:29.830Z,9300.00
2019-04-20T08:32:32.561Z,9496.00
2019-04-20T08:33:36.645Z,9716.00
2019-04-20T08:34:43.095Z,9948.00
2019-04-20T08:35:44.155Z,10244.00
2019-04-20T08:36:43.250Z,10560.00
2019-04-20T08:37:38.662Z,10896.00
2019-04-20T08:39:58.489Z,11436.00
2019-04-20T08:40:39.888Z,11672.00
2019-04-20T08:41:29.687Z,11904.00
2019-04-20T08:42:52.620Z,12220.00
2019-04-20T08:43:47.435Z,12556.00
2019-04-20T08:45:41.870Z,13176.00
2019-04-20T08:46:47.744Z,13452.00
2019-04-20T08:47:48.590Z,13816.00
2019-04-20T08:48:43.429Z,14288.00
2019-04-20T08:49:41.099Z,14660.00
2019-04-20T08:50:34.081Z,15168.00
2019-04-20T08:51:41.640Z,15644.00
2019-04-20T08:52:55.151Z,16212.00
2019-04-20T08:53:36.968Z,16860.00
2019-04-20T08:54:34.560Z,17984.00
2019-04-20T08:55:33.154Z,19424.00
2019-04-20T08:56:29.796Z,22208.00
2019-04-20T08:57:17.842Z,47328.00
2019-04-20T08:58:18.080Z,76160.00
2019-04-20T08:59:18.807Z,77856.00
2019-04-20T09:00:28.815Z,82368.00
2019-04-20T09:01:24.227Z,87712.00
2019-04-20T09:02:18.821Z,87552.00
2019-04-20T09:03:24.142Z,88160.00
2019-04-20T09:04:24.295Z,90176.00
2019-04-20T09:05:30.273Z,89216.00
2019-04-20T09:06:34.758Z,85408.00
2019-04-20T09:07:22.789Z,82560.00
2019-04-20T09:08:23.747Z,85920.00
2019-04-20T09:09:44.554Z,88928.00
2019-04-20T09:10:40.892Z,89888.00
2019-04-20T09:11:45.249Z,86816.00
2019-04-20T09:12:35.539Z,84288.00
2019-04-20T09:13:29.459Z,85184.00
2019-04-20T09:14:18.434Z,89536.00
2019-04-20T09:15:17.216Z,93568.00
2019-04-20T09:16:21.871Z,90912.00
2019-04-20T09:17:24.468Z,86816.00
2019-04-20T09:18:26.099Z,88608.00
2019-04-20T09:19:32.518Z,91968.00
2019-04-20T09:20:29.106Z,92224.00
2019-04-20T09:21:30.914Z,89536.00
2019-04-20T09:22:28.236Z,87680.00
2019-04-20T09:23:35.151Z,89088.00
2019-04-20T09:24:38.305Z,89664.00
2019-04-20T09:25:48.480Z,89344.00
2019-04-20T09:26:37.649Z,86176.00
2019-04-20T09:27:29.183Z,84672.00
2019-04-20T09:28:27.586Z,83840.00
2019-04-20T09:29:31.987Z,83104.00
2019-04-20T09:30:27.977Z,84320.00
2019-04-20T09:31:33.141Z,84544.00
2019-04-20T09:32:35.048Z,83296.00
2019-04-20T09:33:38.703Z,80064.00
2019-04-20T09:34:37.047Z,84352.00
2019-04-20T09:35:37.317Z,91136.00
2019-04-20T09:36:32.491Z,90816.00
2019-04-20T09:37:37.138Z,86368.00
2019-04-20T09:38:30.014Z,83360.00
2019-04-20T09:39:25.624Z,83648.00
2019-04-20T09:40:38.905Z,86336.00
2019-04-20T09:41:42.221Z,88928.00
2019-04-20T09:42:17.001Z,88640.00
2019-04-20T09:43:18.529Z,87680.00
2019-04-20T09:44:17.755Z,88672.00
2019-04-20T09:45:23.259Z,89760.00
2019-04-20T09:46:17.963Z,89056.00
2019-04-20T09:47:23.838Z,87232.00
2019-04-20T09:48:25.223Z,83392.00
2019-04-20T09:49:32.636Z,80896.00
2019-04-20T09:50:33.664Z,78816.00
2019-04-20T09:51:34.955Z,81248.00
2019-04-20T09:52:28.934Z,84640.00
2019-04-20T09:53:29.442Z,89088.00
2019-04-20T09:54:37.040Z,82912.00
2019-04-20T09:55:29.542Z,81312.00
2019-04-20T09:56:34.619Z,86176.00
2019-04-20T09:57:35.053Z,92224.00
2019-04-20T09:58:27.053Z,94912.00
2019-04-20T09:59:39.715Z,95456.00
2019-04-20T10:00:33.974Z,95392.00
2019-04-20T10:01:29.389Z,96608.00
2019-04-20T10:02:23.800Z,93920.00
2019-04-20T10:03:16.827Z,93216.00
2019-04-20T10:04:17.515Z,89248.00
2019-04-20T10:05:17.720Z,85888.00
2019-04-20T10:06:17.991Z,84544.00
2019-04-20T10:07:19.979Z,84736.00
2019-04-20T10:08:17.622Z,84448.00
2019-04-20T10:09:22.383Z,88768.00
2019-04-20T10:10:26.929Z,92288.00
2019-04-20T10:11:17.313Z,95200.00
2019-04-20T10:12:17.633Z,95168.00
2019-04-20T10:13:17.445Z,94176.00
2019-04-20T10:14:16.746Z,90464.00
2019-04-20T10:15:19.994Z,91008.00
2019-04-20T10:16:17.739Z,93664.00
2019-04-20T10:17:17.930Z,95616.00
2019-04-20T10:18:17.502Z,93120.00
2019-04-20T10:19:20.589Z,92192.00
2019-04-20T10:20:24.345Z,94912.00
2019-04-20T10:21:17.965Z,97120.00
2019-04-20T10:22:16.696Z,99168.00
2019-04-20T10:23:16.685Z,99296.00
2019-04-20T10:24:16.766Z,100960.00
2019-04-20T10:25:16.676Z,101440.00
2019-04-20T10:26:16.672Z,101984.00
2019-04-20T10:27:16.813Z,100192.00
2019-04-20T10:28:16.688Z,94944.00
2019-04-20T10:29:17.471Z,91520.00
2019-04-20T10:30:16.731Z,93600.00
2019-04-20T10:31:16.827Z,97728.00
2019-04-20T10:32:17.924Z,99328.00
2019-04-20T10:33:17.634Z,100384.00
2019-04-20T10:34:18.016Z,102752.00
2019-04-20T10:35:18.562Z,103200.00
2019-04-20T10:36:17.330Z,100672.00
2019-04-20T10:37:17.572Z,102464.00
2019-04-20T10:38:17.789Z,106176.00
2019-04-20T10:39:16.603Z,103936.00
2019-04-20T10:40:29.609Z,100992.00
2019-04-20T10:41:29.643Z,102496.00
2019-04-20T10:42:16.590Z,104864.00
2019-04-20T10:43:16.596Z,103168.00
2019-04-20T10:44:16.751Z,103488.00
2019-04-20T10:45:17.065Z,104128.00
2019-04-20T10:46:17.330Z,103968.00
2019-04-20T10:47:16.870Z,104512.00
2019-04-20T10:48:17.338Z,104832.00
2019-04-20T10:49:17.502Z,105120.00
2019-04-20T10:50:16.882Z,106176.00
2019-04-20T10:51:17.739Z,108384.00
2019-04-20T10:52:17.653Z,108736.00
2019-04-20T10:53:17.588Z,105920.00
2019-04-20T10:54:16.559Z,102816.00
2019-04-20T10:55:16.586Z,103264.00
2019-04-20T10:56:16.536Z,104416.00
2019-04-20T10:57:17.453Z,105408.00
2019-04-20T10:58:17.702Z,107072.00
2019-04-20T10:59:16.522Z,106944.00
2019-04-20T11:00:17.540Z,105088.00
2019-04-20T11:01:17.742Z,105120.00
2019-04-20T11:02:16.517Z,105664.00
2019-04-20T11:03:17.784Z,105664.00
2019-04-20T11:04:16.716Z,105632.00
2019-04-20T11:05:16.948Z,107520.00
2019-04-20T11:06:16.528Z,108000.00
2019-04-20T11:07:16.673Z,108864.00
2019-04-20T11:08:16.835Z,107552.00
2019-04-20T11:09:16.586Z,107072.00
2019-04-20T11:10:22.770Z,106368.00
2019-04-20T11:11:23.887Z,107136.00
2019-04-20T11:12:16.666Z,107424.00
2019-04-20T11:13:17.238Z,106944.00
2019-04-20T11:14:24.847Z,109280.00
2019-04-20T11:15:16.582Z,108032.00
2019-04-20T11:16:16.479Z,101920.00
2019-04-20T11:17:16.491Z,99104.00
2019-04-20T11:18:17.694Z,98144.00
2019-04-20T11:19:16.479Z,104224.00
2019-04-20T11:20:17.241Z,107488.00
2019-04-20T11:21:17.481Z,108000.00
2019-04-20T11:22:16.730Z,107232.00
2019-04-20T11:23:16.488Z,104128.00
2019-04-20T11:24:16.472Z,105728.00
2019-04-20T11:25:16.647Z,108320.00
2019-04-20T11:26:16.471Z,108096.00
2019-04-20T11:27:16.466Z,103392.00
2019-04-20T11:28:16.655Z,99648.00
2019-04-20T11:29:16.462Z,99328.00
2019-04-20T11:30:16.469Z,100736.00
2019-04-20T11:31:16.665Z,103520.00
2019-04-20T11:32:17.899Z,104160.00
2019-04-20T11:33:16.459Z,104800.00
2019-04-20T11:34:24.968Z,105632.00
2019-04-20T11:35:23.802Z,105408.00
2019-04-20T11:36:17.130Z,105984.00
2019-04-20T11:37:17.237Z,106016.00
2019-04-20T11:38:17.333Z,108704.00
2019-04-20T11:39:16.844Z,110368.00
2019-04-20T11:40:17.008Z,111936.00
2019-04-20T11:41:23.736Z,108672.00
2019-04-20T11:42:17.417Z,104032.00
2019-04-20T11:43:17.716Z,100352.00
2019-04-20T11:44:17.807Z,99520.00
2019-04-20T11:45:16.459Z,101504.00
2019-04-20T11:46:16.607Z,102112.00
2019-04-20T11:47:16.809Z,109312.00
2019-04-20T11:48:16.459Z,107744.00
2019-04-20T11:49:17.506Z,109408.00
2019-04-20T11:50:17.746Z,107488.00
2019-04-20T11:51:16.485Z,106272.00
2019-04-20T11:52:19.634Z,104160.00
2019-04-20T11:53:17.476Z,97632.00
2019-04-20T11:54:16.653Z,92256.00
2019-04-20T11:55:16.524Z,95968.00
2019-04-20T11:56:21.302Z,101184.00
2019-04-20T11:57:17.429Z,96832.00
2019-04-20T11:58:16.502Z,89088.00
2019-04-20T11:59:16.929Z,80704.00
2019-04-20T12:00:17.273Z,74624.00
2019-04-20T12:01:19.158Z,74432.00
2019-04-20T12:02:25.289Z,73408.00
2019-04-20T12:03:25.984Z,75392.00
2019-04-20T12:04:27.119Z,86176.00
2019-04-20T12:05:24.741Z,92064.00
2019-04-20T12:06:16.835Z,102368.00
2019-04-20T12:07:17.103Z,116384.00
2019-04-20T12:08:16.711Z,123296.00
2019-04-20T12:09:17.040Z,106624.00
2019-04-20T12:10:20.982Z,63968.00
2019-04-20T12:11:27.847Z,37440.00
2019-04-20T12:12:29.424Z,32992.00
2019-04-20T12:13:16.599Z,31488.00
2019-04-20T12:14:16.678Z,30496.00
2019-04-20T12:15:16.874Z,30272.00
2019-04-20T12:16:17.315Z,30080.00
2019-04-20T12:17:17.666Z,29920.00
2019-04-20T12:18:17.829Z,29696.00
2019-04-20T12:19:16.516Z,29376.00
2019-04-20T12:20:16.756Z,29024.00
2019-04-20T12:21:16.861Z,28992.00
2019-04-20T12:22:17.768Z,29280.00
2019-04-20T12:23:16.520Z,29600.00
2019-04-20T12:24:16.569Z,30080.00
2019-04-20T12:25:16.531Z,30336.00
2019-04-20T12:26:16.521Z,30720.00
2019-04-20T12:27:16.737Z,31136.00
2019-04-20T12:28:17.840Z,31392.00
2019-04-20T12:29:16.552Z,31744.00
2019-04-20T12:30:17.537Z,32064.00
2019-04-20T12:31:20.554Z,32608.00
2019-04-20T12:32:16.756Z,33120.00
2019-04-20T12:33:17.792Z,33792.00
2019-04-20T12:34:16.545Z,34336.00
2019-04-20T12:35:16.565Z,35360.00
2019-04-20T12:36:16.540Z,36352.00
2019-04-20T12:37:16.541Z,36928.00